• Join FlightAware (Why Join?)
  • Login
  • US Flag 
09:54AM EST


 

Airport Tracker/Info


-or-


 

Live Flight TrackerFlight Track Log ✈ N770NC ✈ 17-Jun-2013 ✈ KORD - KATL

Flight Track Log - Related Links

Times and Time Zones

All times are in EDT time to prevent confusion due to time zone crossing. See the N770NC flight status page for this flight to view local times or setup timezone preferences in your user account.

Time Position Orientation Groundspeed Altitude Reporting Facility
EDT Latitude Longitude Course Direction KTS MPH feet Rate Location/Type
03:46PM 41.9667 -87.9833 166° South 214 246 2,800  Level Chicago TRACON
03:47PM 41.9167 -87.9667 166° South 246 283 4,700 1,380 Climbing Chicago TRACON
03:48PM 41.8706 -87.9664 180° South 249 287 5,000 900 Climbing Chicago Center
03:49PM 41.7928 -87.9400 166° South 271 312 6,200 1,740 Climbing Chicago Center
03:50PM 41.7144 -87.9056 162° South 293 337 8,600 2,040 Climbing Chicago Center
03:51PM 41.6339 -87.8786 166° South 297 342 10,500 1,920 Climbing Chicago Center
03:52PM 41.5483 -87.8558 169° South 310 357 12,600 1,560 Climbing Chicago Center
03:53PM 41.4586 -87.8292 167° South 327 376 13,800 1,020 Climbing Chicago Center
03:54PM 41.3572 -87.8103 172° South 361 415 14,800 1,560 Climbing Chicago Center
03:55PM 41.2281 -87.7811 170° South 388 447 17,100 1,680 Climbing Chicago Center
03:56PM 41.1222 -87.7481 167° South 391 450 18,400 900 Climbing Chicago Center
03:57PM 41.0089 -87.7150 168° South 412 474 19,000 240 Climbing Chicago Center
03:58PM 40.8858 -87.6808 168° South 447 514 19,000  Level Chicago Center
03:59PM 40.7589 -87.6494 169° South 461 531 19,000 600 Level Chicago Center
04:00PM 40.6064 -87.6358 176° South 458 527 20,300 1,740 Climbing Chicago Center
04:01PM 40.4867 -87.6153 173° South 439 505 22,700 1,980 Climbing Chicago Center
04:02PM 40.3733 -87.5856 169° South 419 482 24,400 1,200 Climbing Chicago Center
04:03PM 40.2600 -87.5519 167° South 418 481 25,300 960 Climbing Chicago Center
04:04PM 40.1317 -87.5100 166° South 431 496 26,500 780 Climbing Chicago Center
04:05PM 40.0167 -87.4583 161° South 437 503 27,000 240 Climbing Chicago Center
04:06PM 39.9208 -87.4133 160° South 447 514 27,000  Level Indianapolis Center
04:07PM 39.7992 -87.3522 159° South 466 536 27,000  Level Indianapolis Center
04:08PM 39.6750 -87.2989 162° South 473 544 27,000  Level Indianapolis Center
04:09PM 39.5567 -87.2211 153° Southeast 484 557 27,000  Level Indianapolis Center
04:10PM 39.4739 -87.0761 126° Southeast 507 583 27,000  Level Indianapolis Center
04:11PM 39.3836 -86.8914 122° Southeast 512 589 27,000  Level Indianapolis Center
04:12PM 39.3089 -86.7386 122° Southeast 510 587 27,000  Level Indianapolis Center
04:13PM 39.2353 -86.5858 122° Southeast 508 585 27,000  Level Indianapolis Center
04:14PM 39.1611 -86.4328 122° Southeast 507 583 27,000  Level Indianapolis Center
04:15PM 39.0883 -86.2808 122° Southeast 505 581 27,000  Level Indianapolis Center
04:16PM 39.0008 -86.0986 122° Southeast 504 580 27,000  Level Indianapolis Center
04:17PM 38.9289 -85.9456 121° Southeast 503 579 27,000  Level Indianapolis Center
04:18PM 38.8575 -85.7939 121° Southeast 500 575 27,000  Level Indianapolis Center
04:19PM 38.7872 -85.6394 120° Southeast 504 580 27,000  Level Indianapolis Center
04:20PM 38.7156 -85.4867 121° Southeast 503 579 27,000  Level Indianapolis Center
04:21PM 38.6439 -85.3331 121° Southeast 504 580 27,000  Level Indianapolis Center
04:22PM 38.5642 -85.1583 120° Southeast 504 580 27,000  Level Indianapolis Center
04:23PM 38.4925 -85.0017 120° Southeast 508 585 27,000  Level Indianapolis Center
04:24PM 38.4186 -84.8486 122° Southeast 506 582 27,000  Level Indianapolis Center
04:26PM 38.3347 -84.7031 126° Southeast 509 586 27,000  Level Indianapolis Center
04:27PM 38.2328 -84.5394 128° Southeast 506 582 27,000  Level Indianapolis Center
04:28PM 38.1469 -84.3975 128° Southeast 504 580 27,000  Level Indianapolis Center
04:29PM 38.0578 -84.2614 130° Southeast 500 575 27,000  Level Indianapolis Center
04:30PM 37.9611 -84.1317 133° Southeast 502 578 27,000  Level Indianapolis Center
04:31PM 37.8656 -84.0011 133° Southeast 504 580 27,000  Level Indianapolis Center
04:32PM 37.7717 -83.8686 132° Southeast 506 582 27,000  Level Indianapolis Center
04:33PM 37.6675 -83.7086 129° Southeast 506 582 27,000  Level Indianapolis Center
04:34PM 37.5792 -83.5717 129° Southeast 502 578 27,000  Level Indianapolis Center
04:35PM 37.4928 -83.4300 128° Southeast 507 583 27,000  Level Indianapolis Center
04:36PM 37.4103 -83.2878 126° Southeast 504 580 27,000  Level Indianapolis Center
04:37PM 37.3428 -83.1311 118° Southeast 507 583 27,000  Level Indianapolis Center
04:38PM 37.2769 -82.9719 117° Southeast 509 586 27,000  Level Indianapolis Center
04:39PM 37.2150 -82.8139 116° Southeast 501 577 27,000  Level Indianapolis Center
04:40PM 37.1403 -82.6306 117° Southeast 500 575 27,000  Level Indianapolis Center
04:41PM 37.0239 -82.5808 161° South 463 533 27,000  Level Indianapolis Center
04:42PM 36.9067 -82.6261 197° South 435 501 27,000  Level Indianapolis Center
04:43PM 36.7906 -82.6756 199° South 433 498 27,000  Level Indianapolis Center
04:44PM 36.6753 -82.7272 200° South 433 498 27,000  Level Indianapolis Center
04:45PM 36.5542 -82.7647 194° South 433 498 27,000  Level Atlanta Center
04:46PM 36.4378 -82.8000 194° South 433 498 27,000  Level Atlanta Center
04:47PM 36.3236 -82.8406 196° South 433 498 27,000  Level Atlanta Center
04:48PM 36.2072 -82.8833 197° South 433 498 27,000  Level Atlanta Center
04:49PM 36.0886 -82.9286 197° South 439 505 27,000  Level Atlanta Center
04:50PM 35.9892 -82.9789 202° Southwest 439 505 27,000  Level Atlanta Center
04:51PM 35.8747 -83.0292 200° South 444 511 27,000  Level Atlanta Center
04:52PM 35.7542 -83.0664 194° South 444 511 27,000  Level Atlanta Center
04:53PM 35.6333 -83.0933 190° South 437 503 27,000  Level Atlanta Center
04:54PM 35.5125 -83.1203 190° South 447 514 27,000 -240 Level Atlanta Center
04:55PM 35.4019 -83.1444 190° South 427 491 26,600 -720 Descending Atlanta Center
04:56PM 35.2936 -83.1686 190° South 408 470 25,600 -840 Descending Atlanta Center
04:57PM 35.1897 -83.1950 192° South 395 455 25,000 -300 Descending Atlanta Center
04:58PM 35.0833 -83.2164 189° South 390 449 25,000  Level Atlanta Center
04:59PM 34.9750 -83.2353 188° South 390 449 25,000 -300 Level Atlanta Center
05:00PM 34.8667 -83.2539 188° South 390 449 24,400 -600 Descending Atlanta Center
05:01PM 34.7625 -83.2778 191° South 395 455 23,800 -1,200 Descending Atlanta Center
05:02PM 34.6519 -83.3217 198° South 383 441 22,000 -1,800 Descending Atlanta Center
05:03PM 34.5753 -83.4031 221° Southwest 369 425 20,200 -1,980 Descending Atlanta Center
05:04PM 34.4942 -83.4742 216° Southwest 369 425 18,100 -2,100 Descending Atlanta Center
05:05PM 34.4089 -83.5528 217° Southwest 384 442 16,100 -2,040 Descending Atlanta Center
05:06PM 34.3175 -83.6289 215° Southwest 400 460 14,100 -1,800 Descending Atlanta Center
05:07PM 34.2383 -83.6969 215° Southwest 384 442 12,600 -1,080 Descending Atlanta Center
05:08PM 34.1781 -83.7575 220° Southwest 319 367 12,000 -300 Descending Atlanta Center
05:09PM 34.1197 -83.8081 216° Southwest 270 311 12,000  Level Atlanta Center
05:10PM 34.0758 -83.8608 225° Southwest 237 273 12,000 -780 Level Atlanta Center
05:11PM 34.0333 -83.9167 227° Southwest 218 251 10,400 -960 Descending Atlanta TRACON
05:12PM 33.9667 -83.9167 180° South 230 265 10,000 -300 Descending Atlanta TRACON
05:13PM 33.9000 -83.9333 192° South 228 262 9,900 -600 Descending Atlanta TRACON
05:14PM 33.8333 -83.9333 180° South 222 255 8,900 -1,140 Descending Atlanta TRACON
05:15PM 33.7858 -83.9364 183° South 234 269 7,800 -1,200 Descending Atlanta Center
05:16PM 33.7169 -83.9689 201° Southwest 239 275 6,600 -1,020 Descending Atlanta Center
05:17PM 33.6772 -84.0239 229° Southwest 231 266 5,800 -840 Descending Atlanta Center
05:18PM 33.6481 -84.0811 239° Southwest 214 246 5,000 -420 Descending Atlanta Center
05:19PM 33.6500 -84.1667 272° West 205 236 4,900 -600 Descending Atlanta TRACON
05:20PM 33.6500 -84.2333 270° West 206 237 3,700 -1,140 Descending Atlanta TRACON
05:21PM 33.6500 -84.2833 270° West 185 213 2,800 -960 Descending Atlanta TRACON
05:22PM 33.6500 -84.3500 270° West 168 193 1,900 -900 Descending Atlanta TRACON
05:23PM 33.6500 -84.4000 270° West 171 197 1,000 -900 Descending Atlanta TRACON
05:25PM 33.6333 -84.4167 265° West  Level FlightAware Approximate
05:32PM 33.6367 -84.4279 265° West  Level Estimated